sensor_id;sensor_type;location;lat;lon;timestamp;P1;durP1;ratioP1;P2;durP2;ratioP2
16039;SDS011;8124;48.634;8.120;2023-05-07T00:03:08;40.95;;;36.55;;
16039;SDS011;8124;48.634;8.120;2023-05-07T00:08:12;41.67;;;36.78;;
16039;SDS011;8124;48.634;8.120;2023-05-07T00:13:15;41.85;;;37.33;;
16039;SDS011;8124;48.634;8.120;2023-05-07T00:18:20;41.80;;;37.25;;
16039;SDS011;8124;48.634;8.120;2023-05-07T00:23:23;41.70;;;37.10;;
16039;SDS011;8124;48.634;8.120;2023-05-07T00:28:26;41.25;;;36.78;;
16039;SDS011;8124;48.634;8.120;2023-05-07T00:33:31;41.58;;;37.03;;
16039;SDS011;8124;48.634;8.120;2023-05-07T00:38:33;42.58;;;36.78;;
16039;SDS011;8124;48.634;8.120;2023-05-07T00:43:37;41.20;;;36.70;;
16039;SDS011;8124;48.634;8.120;2023-05-07T00:48:42;40.80;;;36.38;;
16039;SDS011;8124;48.634;8.120;2023-05-07T00:53:45;41.22;;;36.70;;
16039;SDS011;8124;48.634;8.120;2023-05-07T00:58:48;41.47;;;36.97;;
16039;SDS011;8124;48.634;8.120;2023-05-07T01:03:53;40.75;;;36.35;;
16039;SDS011;8124;48.634;8.120;2023-05-07T01:08:57;43.63;;;37.13;;
16039;SDS011;8124;48.634;8.120;2023-05-07T01:14:01;42.15;;;36.80;;
16039;SDS011;8124;48.634;8.120;2023-05-07T01:19:06;40.63;;;36.22;;
16039;SDS011;8124;48.634;8.120;2023-05-07T01:24:14;41.30;;;36.80;;
16039;SDS011;8124;48.634;8.120;2023-05-07T01:29:18;42.88;;;36.97;;
16039;SDS011;8124;48.634;8.120;2023-05-07T01:34:22;41.58;;;37.05;;
16039;SDS011;8124;48.634;8.120;2023-05-07T01:39:29;42.30;;;37.03;;
16039;SDS011;8124;48.634;8.120;2023-05-07T01:44:33;41.38;;;36.88;;
16039;SDS011;8124;48.634;8.120;2023-05-07T01:49:36;41.17;;;36.67;;
16039;SDS011;8124;48.634;8.120;2023-05-07T01:54:41;41.38;;;36.85;;
16039;SDS011;8124;48.634;8.120;2023-05-07T01:59:44;41.40;;;36.90;;
16039;SDS011;8124;48.634;8.120;2023-05-07T02:04:47;40.95;;;36.53;;
16039;SDS011;8124;48.634;8.120;2023-05-07T02:09:52;41.42;;;36.90;;
16039;SDS011;8124;48.634;8.120;2023-05-07T02:14:56;41.00;;;36.55;;
16039;SDS011;8124;48.634;8.120;2023-05-07T02:19:59;42.67;;;36.63;;
16039;SDS011;8124;48.634;8.120;2023-05-07T02:25:04;42.53;;;37.05;;
16039;SDS011;8124;48.634;8.120;2023-05-07T02:30:07;41.10;;;36.63;;
16039;SDS011;8124;48.634;8.120;2023-05-07T02:35:11;42.35;;;37.75;;
16039;SDS011;8124;48.634;8.120;2023-05-07T02:40:16;41.60;;;37.05;;
16039;SDS011;8124;48.634;8.120;2023-05-07T02:45:19;41.35;;;36.78;;
16039;SDS011;8124;48.634;8.120;2023-05-07T02:50:25;41.83;;;37.22;;
16039;SDS011;8124;48.634;8.120;2023-05-07T02:55:30;42.25;;;36.90;;
16039;SDS011;8124;48.634;8.120;2023-05-07T03:00:33;40.90;;;36.42;;
16039;SDS011;8124;48.634;8.120;2023-05-07T03:05:56;41.28;;;36.53;;
16039;SDS011;8124;48.634;8.120;2023-05-07T03:11:01;41.13;;;36.63;;
16039;SDS011;8124;48.634;8.120;2023-05-07T03:16:04;42.58;;;36.55;;
16039;SDS011;8124;48.634;8.120;2023-05-07T03:21:07;42.80;;;36.75;;
16039;SDS011;8124;48.634;8.120;2023-05-07T03:26:12;41.67;;;37.17;;
16039;SDS011;8124;48.634;8.120;2023-05-07T03:31:16;44.92;;;37.75;;
16039;SDS011;8124;48.634;8.120;2023-05-07T03:36:19;41.22;;;36.72;;
16039;SDS011;8124;48.634;8.120;2023-05-07T03:41:24;41.25;;;36.75;;
16039;SDS011;8124;48.634;8.120;2023-05-07T03:46:39;41.55;;;37.05;;
16039;SDS011;8124;48.634;8.120;2023-05-07T03:51:44;42.33;;;36.83;;
16039;SDS011;8124;48.634;8.120;2023-05-07T03:56:49;41.58;;;36.65;;
16039;SDS011;8124;48.634;8.120;2023-05-07T04:01:51;42.10;;;37.50;;
16039;SDS011;8124;48.634;8.120;2023-05-07T04:06:57;41.80;;;37.22;;
16039;SDS011;8124;48.634;8.120;2023-05-07T04:12:03;43.58;;;37.28;;
16039;SDS011;8124;48.634;8.120;2023-05-07T04:17:08;42.63;;;36.83;;
16039;SDS011;8124;48.634;8.120;2023-05-07T04:22:12;42.53;;;37.42;;
16039;SDS011;8124;48.634;8.120;2023-05-07T04:27:17;44.42;;;37.53;;
16039;SDS011;8124;48.634;8.120;2023-05-07T04:32:20;42.50;;;37.17;;
16039;SDS011;8124;48.634;8.120;2023-05-07T04:37:24;41.88;;;37.28;;
16039;SDS011;8124;48.634;8.120;2023-05-07T04:42:29;42.58;;;37.97;;
16039;SDS011;8124;48.634;8.120;2023-05-07T04:47:34;46.88;;;38.15;;
16039;SDS011;8124;48.634;8.120;2023-05-07T04:52:37;86.20;;;52.55;;
16039;SDS011;8124;48.634;8.120;2023-05-07T04:57:42;67.10;;;47.88;;
16039;SDS011;8124;48.634;8.120;2023-05-07T05:02:47;44.28;;;38.88;;
16039;SDS011;8124;48.634;8.120;2023-05-07T05:07:53;43.53;;;38.72;;
16039;SDS011;8124;48.634;8.120;2023-05-07T05:12:58;46.97;;;39.85;;
16039;SDS011;8124;48.634;8.120;2023-05-07T05:18:02;47.08;;;39.50;;
16039;SDS011;8124;48.634;8.120;2023-05-07T05:23:07;47.60;;;40.03;;
16039;SDS011;8124;48.634;8.120;2023-05-07T05:28:13;47.03;;;38.90;;
16039;SDS011;8124;48.634;8.120;2023-05-07T05:33:16;43.92;;;38.75;;
16039;SDS011;8124;48.634;8.120;2023-05-07T05:38:19;44.97;;;40.08;;
16039;SDS011;8124;48.634;8.120;2023-05-07T05:43:25;43.47;;;38.78;;
16039;SDS011;8124;48.634;8.120;2023-05-07T05:48:28;46.35;;;39.28;;
16039;SDS011;8124;48.634;8.120;2023-05-07T05:53:34;43.08;;;38.38;;
16039;SDS011;8124;48.634;8.120;2023-05-07T05:58:40;44.28;;;38.85;;
16039;SDS011;8124;48.634;8.120;2023-05-07T06:03:43;46.50;;;38.45;;
16039;SDS011;8124;48.634;8.120;2023-05-07T06:08:49;43.53;;;38.45;;
16039;SDS011;8124;48.634;8.120;2023-05-07T06:13:59;46.85;;;38.90;;
16039;SDS011;8124;48.634;8.120;2023-05-07T06:19:11;47.22;;;39.85;;
16039;SDS011;8124;48.634;8.120;2023-05-07T06:24:15;44.95;;;39.17;;
16039;SDS011;8124;48.634;8.120;2023-05-07T06:29:19;43.47;;;38.78;;
16039;SDS011;8124;48.634;8.120;2023-05-07T06:34:22;43.55;;;38.85;;
16039;SDS011;8124;48.634;8.120;2023-05-07T06:39:26;42.90;;;38.20;;
16039;SDS011;8124;48.634;8.120;2023-05-07T06:44:30;43.13;;;38.53;;
16039;SDS011;8124;48.634;8.120;2023-05-07T06:49:40;43.50;;;38.75;;
16039;SDS011;8124;48.634;8.120;2023-05-07T06:54:43;42.85;;;37.83;;
16039;SDS011;8124;48.634;8.120;2023-05-07T06:59:50;42.75;;;38.15;;
16039;SDS011;8124;48.634;8.120;2023-05-07T07:04:54;46.97;;;38.65;;
16039;SDS011;8124;48.634;8.120;2023-05-07T07:09:57;42.88;;;38.25;;
16039;SDS011;8124;48.634;8.120;2023-05-07T07:15:05;43.40;;;38.60;;
16039;SDS011;8124;48.634;8.120;2023-05-07T07:20:09;43.47;;;38.67;;
16039;SDS011;8124;48.634;8.120;2023-05-07T07:25:14;44.70;;;39.00;;
16039;SDS011;8124;48.634;8.120;2023-05-07T07:30:19;43.80;;;38.95;;
16039;SDS011;8124;48.634;8.120;2023-05-07T07:35:23;43.67;;;38.92;;
16039;SDS011;8124;48.634;8.120;2023-05-07T07:40:35;43.72;;;38.95;;
16039;SDS011;8124;48.634;8.120;2023-05-07T07:45:42;43.85;;;39.13;;
16039;SDS011;8124;48.634;8.120;2023-05-07T07:50:45;44.38;;;39.08;;
16039;SDS011;8124;48.634;8.120;2023-05-07T07:55:52;44.45;;;39.08;;
16039;SDS011;8124;48.634;8.120;2023-05-07T08:01:03;43.65;;;38.85;;
16039;SDS011;8124;48.634;8.120;2023-05-07T08:06:07;45.03;;;38.38;;
16039;SDS011;8124;48.634;8.120;2023-05-07T08:11:10;45.70;;;39.35;;
16039;SDS011;8124;48.634;8.120;2023-05-07T08:16:15;44.30;;;38.88;;
16039;SDS011;8124;48.634;8.120;2023-05-07T08:21:18;45.28;;;38.67;;
16039;SDS011;8124;48.634;8.120;2023-05-07T08:26:21;43.33;;;38.63;;
16039;SDS011;8124;48.634;8.120;2023-05-07T08:31:26;43.30;;;38.55;;
16039;SDS011;8124;48.634;8.120;2023-05-07T08:36:29;47.38;;;39.00;;
16039;SDS011;8124;48.634;8.120;2023-05-07T08:41:32;43.63;;;38.85;;
16039;SDS011;8124;48.634;8.120;2023-05-07T08:46:37;45.00;;;39.08;;
16039;SDS011;8124;48.634;8.120;2023-05-07T08:51:49;45.75;;;40.33;;
16039;SDS011;8124;48.634;8.120;2023-05-07T08:56:53;43.97;;;39.28;;
16039;SDS011;8124;48.634;8.120;2023-05-07T09:02:05;44.08;;;39.28;;
16039;SDS011;8124;48.634;8.120;2023-05-07T09:07:13;46.58;;;40.30;;
16039;SDS011;8124;48.634;8.120;2023-05-07T09:12:18;44.03;;;39.28;;
16039;SDS011;8124;48.634;8.120;2023-05-07T09:17:22;45.78;;;39.60;;
16039;SDS011;8124;48.634;8.120;2023-05-07T09:22:26;44.50;;;39.55;;
16039;SDS011;8124;48.634;8.120;2023-05-07T09:27:35;45.53;;;40.63;;
16039;SDS011;8124;48.634;8.120;2023-05-07T09:32:39;44.72;;;39.92;;
16039;SDS011;8124;48.634;8.120;2023-05-07T09:37:49;46.67;;;41.58;;
16039;SDS011;8124;48.634;8.120;2023-05-07T09:42:53;44.97;;;40.10;;
16039;SDS011;8124;48.634;8.120;2023-05-07T09:47:59;45.33;;;40.38;;
16039;SDS011;8124;48.634;8.120;2023-05-07T09:53:05;44.95;;;40.05;;
16039;SDS011;8124;48.634;8.120;2023-05-07T09:58:09;44.63;;;39.83;;
16039;SDS011;8124;48.634;8.120;2023-05-07T10:03:22;45.45;;;40.47;;
16039;SDS011;8124;48.634;8.120;2023-05-07T10:08:40;45.20;;;40.17;;
16039;SDS011;8124;48.634;8.120;2023-05-07T10:13:45;46.67;;;41.67;;
16039;SDS011;8124;48.634;8.120;2023-05-07T10:18:51;46.88;;;40.40;;
16039;SDS011;8124;48.634;8.120;2023-05-07T10:23:58;46.05;;;41.05;;
16039;SDS011;8124;48.634;8.120;2023-05-07T10:29:05;46.22;;;40.95;;
16039;SDS011;8124;48.634;8.120;2023-05-07T10:34:14;47.65;;;41.10;;
16039;SDS011;8124;48.634;8.120;2023-05-07T10:39:21;46.40;;;41.35;;
16039;SDS011;8124;48.634;8.120;2023-05-07T10:44:26;46.67;;;41.63;;
16039;SDS011;8124;48.634;8.120;2023-05-07T10:49:48;46.08;;;41.13;;
16039;SDS011;8124;48.634;8.120;2023-05-07T10:55:27;48.60;;;41.85;;
16039;SDS011;8124;48.634;8.120;2023-05-07T11:00:42;49.92;;;42.65;;
16039;SDS011;8124;48.634;8.120;2023-05-07T11:06:10;46.97;;;41.90;;
16039;SDS011;8124;48.634;8.120;2023-05-07T11:11:44;47.22;;;42.13;;
16039;SDS011;8124;48.634;8.120;2023-05-07T11:17:03;47.40;;;42.22;;
16039;SDS011;8124;48.634;8.120;2023-05-07T11:22:15;46.75;;;40.25;;
16039;SDS011;8124;48.634;8.120;2023-05-07T11:27:52;45.47;;;40.28;;
16039;SDS011;8124;48.634;8.120;2023-05-07T11:32:57;46.00;;;39.90;;
16039;SDS011;8124;48.634;8.120;2023-05-07T11:38:02;46.05;;;40.78;;
16039;SDS011;8124;48.634;8.120;2023-05-07T11:43:10;48.65;;;40.60;;
16039;SDS011;8124;48.634;8.120;2023-05-07T11:48:13;46.38;;;41.28;;
16039;SDS011;8124;48.634;8.120;2023-05-07T11:53:18;45.30;;;40.47;;
16039;SDS011;8124;48.634;8.120;2023-05-07T11:58:23;45.42;;;40.53;;
16039;SDS011;8124;48.634;8.120;2023-05-07T12:03:27;46.00;;;40.58;;
16039;SDS011;8124;48.634;8.120;2023-05-07T12:08:37;45.17;;;40.38;;
16039;SDS011;8124;48.634;8.120;2023-05-07T12:13:41;45.65;;;40.50;;
16039;SDS011;8124;48.634;8.120;2023-05-07T12:18:45;45.15;;;40.35;;
16039;SDS011;8124;48.634;8.120;2023-05-07T12:23:50;45.65;;;40.75;;
16039;SDS011;8124;48.634;8.120;2023-05-07T12:28:53;46.13;;;40.97;;
16039;SDS011;8124;48.634;8.120;2023-05-07T12:39:05;48.85;;;42.42;;
16039;SDS011;8124;48.634;8.120;2023-05-07T12:44:09;45.42;;;40.42;;
16039;SDS011;8124;48.634;8.120;2023-05-07T12:49:14;45.65;;;40.65;;
16039;SDS011;8124;48.634;8.120;2023-05-07T12:54:28;45.65;;;40.40;;
16039;SDS011;8124;48.634;8.120;2023-05-07T12:59:34;45.35;;;40.42;;
16039;SDS011;8124;48.634;8.120;2023-05-07T13:04:38;45.65;;;40.75;;
16039;SDS011;8124;48.634;8.120;2023-05-07T13:09:44;44.95;;;40.15;;
16039;SDS011;8124;48.634;8.120;2023-05-07T13:14:49;44.75;;;39.90;;
16039;SDS011;8124;48.634;8.120;2023-05-07T13:19:53;45.60;;;40.70;;
16039;SDS011;8124;48.634;8.120;2023-05-07T13:25:00;44.72;;;39.85;;
16039;SDS011;8124;48.634;8.120;2023-05-07T13:30:03;45.90;;;40.13;;
16039;SDS011;8124;48.634;8.120;2023-05-07T13:35:08;44.67;;;39.90;;
16039;SDS011;8124;48.634;8.120;2023-05-07T13:40:13;45.25;;;40.38;;
16039;SDS011;8124;48.634;8.120;2023-05-07T13:45:16;47.13;;;40.63;;
16039;SDS011;8124;48.634;8.120;2023-05-07T13:50:26;45.83;;;40.92;;
16039;SDS011;8124;48.634;8.120;2023-05-07T13:55:32;45.78;;;40.83;;
16039;SDS011;8124;48.634;8.120;2023-05-07T14:00:36;45.83;;;40.88;;
16039;SDS011;8124;48.634;8.120;2023-05-07T14:05:39;46.03;;;40.90;;
16039;SDS011;8124;48.634;8.120;2023-05-07T14:10:44;45.67;;;40.85;;
16039;SDS011;8124;48.634;8.120;2023-05-07T14:15:47;46.90;;;41.85;;
16039;SDS011;8124;48.634;8.120;2023-05-07T14:20:50;45.75;;;40.75;;
16039;SDS011;8124;48.634;8.120;2023-05-07T14:25:54;44.88;;;40.08;;
16039;SDS011;8124;48.634;8.120;2023-05-07T14:30:58;45.58;;;40.67;;
16039;SDS011;8124;48.634;8.120;2023-05-07T14:36:01;45.40;;;40.50;;
16039;SDS011;8124;48.634;8.120;2023-05-07T14:41:06;46.78;;;40.90;;
16039;SDS011;8124;48.634;8.120;2023-05-07T14:46:08;45.63;;;40.67;;
16039;SDS011;8124;48.634;8.120;2023-05-07T14:51:12;45.35;;;40.53;;
16039;SDS011;8124;48.634;8.120;2023-05-07T14:56:16;46.13;;;40.75;;
16039;SDS011;8124;48.634;8.120;2023-05-07T15:01:19;45.65;;;40.75;;
16039;SDS011;8124;48.634;8.120;2023-05-07T15:06:23;45.58;;;40.60;;
16039;SDS011;8124;48.634;8.120;2023-05-07T15:11:28;46.08;;;41.00;;
16039;SDS011;8124;48.634;8.120;2023-05-07T15:16:31;47.35;;;42.25;;
16039;SDS011;8124;48.634;8.120;2023-05-07T15:21:35;47.33;;;42.22;;
16039;SDS011;8124;48.634;8.120;2023-05-07T15:26:39;46.20;;;41.20;;
16039;SDS011;8124;48.634;8.120;2023-05-07T15:31:42;45.10;;;40.20;;
16039;SDS011;8124;48.634;8.120;2023-05-07T15:36:45;46.55;;;40.55;;
16039;SDS011;8124;48.634;8.120;2023-05-07T15:41:49;44.90;;;40.03;;
16039;SDS011;8124;48.634;8.120;2023-05-07T15:46:52;44.20;;;39.40;;
16039;SDS011;8124;48.634;8.120;2023-05-07T15:51:56;42.97;;;38.35;;
16039;SDS011;8124;48.634;8.120;2023-05-07T15:57:01;43.30;;;38.65;;
16039;SDS011;8124;48.634;8.120;2023-05-07T16:02:07;43.30;;;38.63;;
16039;SDS011;8124;48.634;8.120;2023-05-07T16:07:10;43.55;;;38.40;;
16039;SDS011;8124;48.634;8.120;2023-05-07T16:12:15;43.08;;;38.42;;
16039;SDS011;8124;48.634;8.120;2023-05-07T16:17:18;44.55;;;38.58;;
16039;SDS011;8124;48.634;8.120;2023-05-07T16:22:27;43.08;;;38.38;;
16039;SDS011;8124;48.634;8.120;2023-05-07T16:27:31;44.15;;;39.35;;
16039;SDS011;8124;48.634;8.120;2023-05-07T16:32:34;44.08;;;39.28;;
16039;SDS011;8124;48.634;8.120;2023-05-07T16:37:38;44.60;;;39.70;;
16039;SDS011;8124;48.634;8.120;2023-05-07T16:42:43;42.88;;;38.28;;
16039;SDS011;8124;48.634;8.120;2023-05-07T16:47:45;43.65;;;38.95;;
16039;SDS011;8124;48.634;8.120;2023-05-07T16:52:48;44.15;;;38.67;;
16039;SDS011;8124;48.634;8.120;2023-05-07T16:57:53;44.38;;;39.38;;
16039;SDS011;8124;48.634;8.120;2023-05-07T17:02:55;43.88;;;39.08;;
16039;SDS011;8124;48.634;8.120;2023-05-07T17:07:59;44.28;;;38.60;;
16039;SDS011;8124;48.634;8.120;2023-05-07T17:13:03;43.35;;;38.55;;
16039;SDS011;8124;48.634;8.120;2023-05-07T17:18:06;43.22;;;38.63;;
16039;SDS011;8124;48.634;8.120;2023-05-07T17:23:09;43.40;;;38.58;;
16039;SDS011;8124;48.634;8.120;2023-05-07T17:28:13;43.85;;;39.15;;
16039;SDS011;8124;48.634;8.120;2023-05-07T17:33:16;44.00;;;39.15;;
16039;SDS011;8124;48.634;8.120;2023-05-07T17:38:23;44.55;;;39.65;;
16039;SDS011;8124;48.634;8.120;2023-05-07T17:43:27;44.35;;;39.47;;
16039;SDS011;8124;48.634;8.120;2023-05-07T17:48:31;44.47;;;39.58;;
16039;SDS011;8124;48.634;8.120;2023-05-07T17:53:35;45.40;;;40.20;;
16039;SDS011;8124;48.634;8.120;2023-05-07T17:58:39;45.50;;;39.88;;
16039;SDS011;8124;48.634;8.120;2023-05-07T18:03:48;44.38;;;39.53;;
16039;SDS011;8124;48.634;8.120;2023-05-07T18:08:51;44.67;;;39.53;;
16039;SDS011;8124;48.634;8.120;2023-05-07T18:13:56;44.38;;;39.58;;
16039;SDS011;8124;48.634;8.120;2023-05-07T18:18:59;44.13;;;39.33;;
16039;SDS011;8124;48.634;8.120;2023-05-07T18:24:02;44.53;;;39.72;;
16039;SDS011;8124;48.634;8.120;2023-05-07T18:34:13;45.28;;;39.60;;
16039;SDS011;8124;48.634;8.120;2023-05-07T18:39:16;44.03;;;39.20;;
16039;SDS011;8124;48.634;8.120;2023-05-07T18:44:20;44.53;;;39.20;;
16039;SDS011;8124;48.634;8.120;2023-05-07T18:49:23;43.60;;;38.88;;
16039;SDS011;8124;48.634;8.120;2023-05-07T18:54:26;43.50;;;38.80;;
16039;SDS011;8124;48.634;8.120;2023-05-07T18:59:30;47.15;;;38.72;;
16039;SDS011;8124;48.634;8.120;2023-05-07T19:04:33;44.10;;;39.40;;
16039;SDS011;8124;48.634;8.120;2023-05-07T19:09:37;44.78;;;39.28;;
16039;SDS011;8124;48.634;8.120;2023-05-07T19:14:55;45.72;;;38.67;;
16039;SDS011;8124;48.634;8.120;2023-05-07T19:19:58;43.47;;;38.75;;
16039;SDS011;8124;48.634;8.120;2023-05-07T19:25:01;43.60;;;38.92;;
16039;SDS011;8124;48.634;8.120;2023-05-07T19:30:06;48.33;;;39.95;;
16039;SDS011;8124;48.634;8.120;2023-05-07T19:35:11;43.78;;;39.05;;
16039;SDS011;8124;48.634;8.120;2023-05-07T19:40:14;44.30;;;39.45;;
16039;SDS011;8124;48.634;8.120;2023-05-07T19:45:19;45.20;;;38.63;;
16039;SDS011;8124;48.634;8.120;2023-05-07T19:50:21;43.67;;;38.95;;
16039;SDS011;8124;48.634;8.120;2023-05-07T19:55:24;43.80;;;39.13;;
16039;SDS011;8124;48.634;8.120;2023-05-07T20:00:29;43.72;;;39.00;;
16039;SDS011;8124;48.634;8.120;2023-05-07T20:05:34;46.53;;;39.33;;
16039;SDS011;8124;48.634;8.120;2023-05-07T20:10:42;43.97;;;38.58;;
16039;SDS011;8124;48.634;8.120;2023-05-07T20:15:47;44.50;;;39.70;;
16039;SDS011;8124;48.634;8.120;2023-05-07T20:20:50;44.75;;;40.05;;
16039;SDS011;8124;48.634;8.120;2023-05-07T20:25:52;44.33;;;39.55;;
16039;SDS011;8124;48.634;8.120;2023-05-07T20:30:57;44.70;;;39.90;;
16039;SDS011;8124;48.634;8.120;2023-05-07T20:36:00;43.67;;;38.88;;
16039;SDS011;8124;48.634;8.120;2023-05-07T20:41:04;43.70;;;38.90;;
16039;SDS011;8124;48.634;8.120;2023-05-07T20:46:09;43.25;;;38.55;;
16039;SDS011;8124;48.634;8.120;2023-05-07T20:51:12;43.28;;;38.53;;
16039;SDS011;8124;48.634;8.120;2023-05-07T20:56:16;43.70;;;38.95;;
16039;SDS011;8124;48.634;8.120;2023-05-07T21:01:20;43.63;;;38.90;;
16039;SDS011;8124;48.634;8.120;2023-05-07T21:06:23;43.10;;;38.40;;
16039;SDS011;8124;48.634;8.120;2023-05-07T21:11:26;43.22;;;38.53;;
16039;SDS011;8124;48.634;8.120;2023-05-07T21:16:30;43.45;;;38.65;;
16039;SDS011;8124;48.634;8.120;2023-05-07T21:21:33;45.95;;;39.28;;
16039;SDS011;8124;48.634;8.120;2023-05-07T21:26:36;43.35;;;38.55;;
16039;SDS011;8124;48.634;8.120;2023-05-07T21:31:40;43.95;;;38.88;;
16039;SDS011;8124;48.634;8.120;2023-05-07T21:36:43;44.13;;;38.50;;
16039;SDS011;8124;48.634;8.120;2023-05-07T21:41:46;43.05;;;38.35;;
16039;SDS011;8124;48.634;8.120;2023-05-07T21:46:50;45.17;;;38.85;;
16039;SDS011;8124;48.634;8.120;2023-05-07T21:51:53;43.50;;;38.30;;
16039;SDS011;8124;48.634;8.120;2023-05-07T21:56:57;42.83;;;38.10;;
16039;SDS011;8124;48.634;8.120;2023-05-07T22:02:01;42.97;;;38.30;;
16039;SDS011;8124;48.634;8.120;2023-05-07T22:07:04;43.13;;;38.42;;
16039;SDS011;8124;48.634;8.120;2023-05-07T22:12:07;43.92;;;38.70;;
16039;SDS011;8124;48.634;8.120;2023-05-07T22:17:11;43.63;;;38.38;;
16039;SDS011;8124;48.634;8.120;2023-05-07T22:22:14;43.65;;;38.83;;
16039;SDS011;8124;48.634;8.120;2023-05-07T22:27:19;43.42;;;38.78;;
16039;SDS011;8124;48.634;8.120;2023-05-07T22:32:23;42.85;;;37.90;;
16039;SDS011;8124;48.634;8.120;2023-05-07T22:37:26;43.60;;;38.90;;
16039;SDS011;8124;48.634;8.120;2023-05-07T22:42:29;44.30;;;39.13;;
16039;SDS011;8124;48.634;8.120;2023-05-07T22:47:33;43.28;;;38.58;;
16039;SDS011;8124;48.634;8.120;2023-05-07T22:52:36;43.42;;;38.72;;
16039;SDS011;8124;48.634;8.120;2023-05-07T22:57:39;44.53;;;39.08;;
16039;SDS011;8124;48.634;8.120;2023-05-07T23:02:43;43.08;;;38.38;;
16039;SDS011;8124;48.634;8.120;2023-05-07T23:07:46;44.40;;;39.70;;
16039;SDS011;8124;48.634;8.120;2023-05-07T23:12:49;44.03;;;38.97;;
16039;SDS011;8124;48.634;8.120;2023-05-07T23:17:54;43.47;;;38.78;;
16039;SDS011;8124;48.634;8.120;2023-05-07T23:22:57;44.25;;;38.00;;
16039;SDS011;8124;48.634;8.120;2023-05-07T23:28:00;42.75;;;38.13;;
16039;SDS011;8124;48.634;8.120;2023-05-07T23:33:04;42.85;;;37.65;;
16039;SDS011;8124;48.634;8.120;2023-05-07T23:38:08;42.42;;;37.83;;
16039;SDS011;8124;48.634;8.120;2023-05-07T23:43:11;42.92;;;38.33;;
16039;SDS011;8124;48.634;8.120;2023-05-07T23:48:15;43.10;;;38.45;;
16039;SDS011;8124;48.634;8.120;2023-05-07T23:53:18;42.60;;;37.95;;
16039;SDS011;8124;48.634;8.120;2023-05-07T23:58:21;43.13;;;38.42;;
